sensor_id;sensor_type;location;lat;lon;timestamp;P1;durP1;ratioP1;P2;durP2;ratioP2
58208;SDS011;44006;52.028;4.696;2023-05-07T00:00:34;30.88;;;23.35;;
58208;SDS011;44006;52.028;4.696;2023-05-07T00:02:59;34.23;;;26.43;;
58208;SDS011;44006;52.028;4.696;2023-05-07T00:05:25;30.42;;;22.88;;
58208;SDS011;44006;52.028;4.696;2023-05-07T00:07:50;33.20;;;22.95;;
58208;SDS011;44006;52.028;4.696;2023-05-07T00:10:17;30.35;;;22.75;;
58208;SDS011;44006;52.028;4.696;2023-05-07T00:12:42;32.60;;;23.33;;
58208;SDS011;44006;52.028;4.696;2023-05-07T00:15:08;31.63;;;22.03;;
58208;SDS011;44006;52.028;4.696;2023-05-07T00:17:33;33.13;;;23.33;;
58208;SDS011;44006;52.028;4.696;2023-05-07T00:19:58;33.13;;;23.50;;
58208;SDS011;44006;52.028;4.696;2023-05-07T00:22:23;33.07;;;23.73;;
58208;SDS011;44006;52.028;4.696;2023-05-07T00:24:49;34.17;;;24.17;;
58208;SDS011;44006;52.028;4.696;2023-05-07T00:27:14;33.13;;;24.63;;
58208;SDS011;44006;52.028;4.696;2023-05-07T00:29:39;31.30;;;22.47;;
58208;SDS011;44006;52.028;4.696;2023-05-07T00:32:04;33.70;;;23.53;;
58208;SDS011;44006;52.028;4.696;2023-05-07T00:34:30;32.42;;;24.02;;
58208;SDS011;44006;52.028;4.696;2023-05-07T00:36:55;36.80;;;25.50;;
58208;SDS011;44006;52.028;4.696;2023-05-07T00:39:20;34.93;;;24.27;;
58208;SDS011;44006;52.028;4.696;2023-05-07T00:41:45;32.08;;;23.60;;
58208;SDS011;44006;52.028;4.696;2023-05-07T00:44:11;36.88;;;25.48;;
58208;SDS011;44006;52.028;4.696;2023-05-07T00:46:36;36.00;;;24.77;;
58208;SDS011;44006;52.028;4.696;2023-05-07T00:49:01;39.33;;;26.77;;
58208;SDS011;44006;52.028;4.696;2023-05-07T00:51:27;31.70;;;24.00;;
58208;SDS011;44006;52.028;4.696;2023-05-07T00:53:52;37.10;;;25.55;;
58208;SDS011;44006;52.028;4.696;2023-05-07T00:56:18;40.22;;;27.25;;
58208;SDS011;44006;52.028;4.696;2023-05-07T00:58:43;44.08;;;28.20;;
58208;SDS011;44006;52.028;4.696;2023-05-07T01:01:08;35.03;;;27.02;;
58208;SDS011;44006;52.028;4.696;2023-05-07T01:03:34;38.78;;;26.65;;
58208;SDS011;44006;52.028;4.696;2023-05-07T01:05:59;36.57;;;28.13;;
58208;SDS011;44006;52.028;4.696;2023-05-07T01:08:25;37.55;;;28.25;;
58208;SDS011;44006;52.028;4.696;2023-05-07T01:10:53;40.40;;;28.30;;
58208;SDS011;44006;52.028;4.696;2023-05-07T01:13:18;35.40;;;26.75;;
58208;SDS011;44006;52.028;4.696;2023-05-07T01:15:44;37.10;;;28.13;;
58208;SDS011;44006;52.028;4.696;2023-05-07T01:18:10;35.88;;;29.05;;
58208;SDS011;44006;52.028;4.696;2023-05-07T01:20:35;34.95;;;27.63;;
58208;SDS011;44006;52.028;4.696;2023-05-07T01:23:00;37.63;;;28.73;;
58208;SDS011;44006;52.028;4.696;2023-05-07T01:25:26;38.92;;;28.83;;
58208;SDS011;44006;52.028;4.696;2023-05-07T01:27:51;45.28;;;31.67;;
58208;SDS011;44006;52.028;4.696;2023-05-07T01:30:17;39.63;;;29.33;;
58208;SDS011;44006;52.028;4.696;2023-05-07T01:32:45;45.28;;;32.90;;
58208;SDS011;44006;52.028;4.696;2023-05-07T01:35:14;38.97;;;30.73;;
58208;SDS011;44006;52.028;4.696;2023-05-07T01:37:40;38.72;;;29.38;;
58208;SDS011;44006;52.028;4.696;2023-05-07T01:40:06;40.17;;;29.75;;
58208;SDS011;44006;52.028;4.696;2023-05-07T01:42:32;40.55;;;30.02;;
58208;SDS011;44006;52.028;4.696;2023-05-07T01:44:57;42.47;;;30.85;;
58208;SDS011;44006;52.028;4.696;2023-05-07T01:47:22;41.15;;;30.42;;
58208;SDS011;44006;52.028;4.696;2023-05-07T01:49:48;37.25;;;29.90;;
58208;SDS011;44006;52.028;4.696;2023-05-07T01:52:13;36.60;;;28.50;;
58208;SDS011;44006;52.028;4.696;2023-05-07T01:54:38;36.30;;;29.35;;
58208;SDS011;44006;52.028;4.696;2023-05-07T01:57:03;35.67;;;29.50;;
58208;SDS011;44006;52.028;4.696;2023-05-07T01:59:29;39.27;;;29.17;;
58208;SDS011;44006;52.028;4.696;2023-05-07T02:01:54;38.60;;;29.00;;
58208;SDS011;44006;52.028;4.696;2023-05-07T02:04:19;35.53;;;26.80;;
58208;SDS011;44006;52.028;4.696;2023-05-07T02:06:44;34.53;;;25.63;;
58208;SDS011;44006;52.028;4.696;2023-05-07T02:09:10;31.97;;;27.07;;
58208;SDS011;44006;52.028;4.696;2023-05-07T02:11:36;30.65;;;24.08;;
58208;SDS011;44006;52.028;4.696;2023-05-07T02:14:01;32.95;;;25.48;;
58208;SDS011;44006;52.028;4.696;2023-05-07T02:16:26;30.70;;;23.60;;
58208;SDS011;44006;52.028;4.696;2023-05-07T02:18:51;27.20;;;22.93;;
58208;SDS011;44006;52.028;4.696;2023-05-07T02:21:16;32.58;;;24.50;;
58208;SDS011;44006;52.028;4.696;2023-05-07T02:23:42;29.20;;;23.00;;
58208;SDS011;44006;52.028;4.696;2023-05-07T02:26:07;30.02;;;23.45;;
58208;SDS011;44006;52.028;4.696;2023-05-07T02:28:32;24.40;;;21.70;;
58208;SDS011;44006;52.028;4.696;2023-05-07T02:31:00;31.63;;;22.98;;
58208;SDS011;44006;52.028;4.696;2023-05-07T02:33:25;31.08;;;20.85;;
58208;SDS011;44006;52.028;4.696;2023-05-07T02:35:51;26.95;;;21.77;;
58208;SDS011;44006;52.028;4.696;2023-05-07T02:38:17;24.50;;;21.10;;
58208;SDS011;44006;52.028;4.696;2023-05-07T02:40:42;27.58;;;21.13;;
58208;SDS011;44006;52.028;4.696;2023-05-07T02:43:07;23.58;;;19.73;;
58208;SDS011;44006;52.028;4.696;2023-05-07T02:45:33;22.80;;;20.33;;
58208;SDS011;44006;52.028;4.696;2023-05-07T02:47:59;22.05;;;18.35;;
58208;SDS011;44006;52.028;4.696;2023-05-07T02:50:24;22.80;;;18.00;;
58208;SDS011;44006;52.028;4.696;2023-05-07T02:52:50;27.98;;;18.30;;
58208;SDS011;44006;52.028;4.696;2023-05-07T02:55:15;23.05;;;18.73;;
58208;SDS011;44006;52.028;4.696;2023-05-07T02:57:41;23.58;;;19.52;;
58208;SDS011;44006;52.028;4.696;2023-05-07T03:00:12;21.83;;;17.13;;
58208;SDS011;44006;52.028;4.696;2023-05-07T03:02:38;24.35;;;17.33;;
58208;SDS011;44006;52.028;4.696;2023-05-07T03:05:03;19.90;;;17.63;;
58208;SDS011;44006;52.028;4.696;2023-05-07T03:07:28;22.60;;;16.88;;
58208;SDS011;44006;52.028;4.696;2023-05-07T03:09:53;16.33;;;14.45;;
58208;SDS011;44006;52.028;4.696;2023-05-07T03:12:19;19.40;;;17.05;;
58208;SDS011;44006;52.028;4.696;2023-05-07T03:14:44;19.83;;;17.23;;
58208;SDS011;44006;52.028;4.696;2023-05-07T03:17:09;23.00;;;16.27;;
58208;SDS011;44006;52.028;4.696;2023-05-07T03:19:34;23.23;;;16.25;;
58208;SDS011;44006;52.028;4.696;2023-05-07T03:22:00;19.80;;;16.00;;
58208;SDS011;44006;52.028;4.696;2023-05-07T03:24:25;22.45;;;16.00;;
58208;SDS011;44006;52.028;4.696;2023-05-07T03:26:50;17.60;;;15.68;;
58208;SDS011;44006;52.028;4.696;2023-05-07T03:29:15;17.77;;;15.63;;
58208;SDS011;44006;52.028;4.696;2023-05-07T03:31:40;19.23;;;16.17;;
58208;SDS011;44006;52.028;4.696;2023-05-07T03:34:06;24.80;;;18.40;;
58208;SDS011;44006;52.028;4.696;2023-05-07T03:36:31;19.45;;;16.45;;
58208;SDS011;44006;52.028;4.696;2023-05-07T03:38:56;21.80;;;15.70;;
58208;SDS011;44006;52.028;4.696;2023-05-07T03:41:21;18.07;;;15.57;;
58208;SDS011;44006;52.028;4.696;2023-05-07T03:43:46;20.10;;;16.55;;
58208;SDS011;44006;52.028;4.696;2023-05-07T03:46:12;19.07;;;16.10;;
58208;SDS011;44006;52.028;4.696;2023-05-07T03:48:37;17.50;;;15.03;;
58208;SDS011;44006;52.028;4.696;2023-05-07T03:51:02;20.90;;;15.95;;
58208;SDS011;44006;52.028;4.696;2023-05-07T03:53:29;27.00;;;17.08;;
58208;SDS011;44006;52.028;4.696;2023-05-07T03:55:54;19.13;;;17.13;;
58208;SDS011;44006;52.028;4.696;2023-05-07T03:58:19;19.67;;;15.43;;
58208;SDS011;44006;52.028;4.696;2023-05-07T04:00:44;20.87;;;16.07;;
58208;SDS011;44006;52.028;4.696;2023-05-07T04:03:10;17.90;;;15.80;;
58208;SDS011;44006;52.028;4.696;2023-05-07T04:05:35;18.30;;;16.37;;
58208;SDS011;44006;52.028;4.696;2023-05-07T04:08:01;19.13;;;17.20;;
58208;SDS011;44006;52.028;4.696;2023-05-07T04:10:27;21.00;;;18.48;;
58208;SDS011;44006;52.028;4.696;2023-05-07T04:12:53;19.48;;;17.30;;
58208;SDS011;44006;52.028;4.696;2023-05-07T04:15:18;18.42;;;16.35;;
58208;SDS011;44006;52.028;4.696;2023-05-07T04:17:43;19.90;;;16.40;;
58208;SDS011;44006;52.028;4.696;2023-05-07T04:20:09;19.43;;;16.67;;
58208;SDS011;44006;52.028;4.696;2023-05-07T04:22:35;20.90;;;15.85;;
58208;SDS011;44006;52.028;4.696;2023-05-07T04:25:00;20.67;;;18.17;;
58208;SDS011;44006;52.028;4.696;2023-05-07T04:27:26;19.52;;;15.98;;
58208;SDS011;44006;52.028;4.696;2023-05-07T04:29:51;20.15;;;17.00;;
58208;SDS011;44006;52.028;4.696;2023-05-07T04:32:16;18.10;;;16.20;;
58208;SDS011;44006;52.028;4.696;2023-05-07T04:34:42;19.58;;;17.02;;
58208;SDS011;44006;52.028;4.696;2023-05-07T04:37:08;18.45;;;16.55;;
58208;SDS011;44006;52.028;4.696;2023-05-07T04:39:33;20.35;;;16.42;;
58208;SDS011;44006;52.028;4.696;2023-05-07T04:42:00;18.05;;;15.68;;
58208;SDS011;44006;52.028;4.696;2023-05-07T04:44:25;22.00;;;18.17;;
58208;SDS011;44006;52.028;4.696;2023-05-07T04:46:51;19.13;;;17.05;;
58208;SDS011;44006;52.028;4.696;2023-05-07T04:49:16;21.10;;;17.97;;
58208;SDS011;44006;52.028;4.696;2023-05-07T04:51:41;22.63;;;19.07;;
58208;SDS011;44006;52.028;4.696;2023-05-07T04:54:07;18.92;;;16.83;;
58208;SDS011;44006;52.028;4.696;2023-05-07T04:56:34;19.17;;;16.40;;
58208;SDS011;44006;52.028;4.696;2023-05-07T04:58:59;24.38;;;17.25;;
58208;SDS011;44006;52.028;4.696;2023-05-07T05:01:24;21.52;;;16.05;;
58208;SDS011;44006;52.028;4.696;2023-05-07T05:03:49;20.90;;;16.70;;
58208;SDS011;44006;52.028;4.696;2023-05-07T05:06:14;20.88;;;15.70;;
58208;SDS011;44006;52.028;4.696;2023-05-07T05:08:40;18.73;;;15.40;;
58208;SDS011;44006;52.028;4.696;2023-05-07T05:11:05;23.35;;;16.98;;
58208;SDS011;44006;52.028;4.696;2023-05-07T05:13:30;19.33;;;15.85;;
58208;SDS011;44006;52.028;4.696;2023-05-07T05:15:55;18.43;;;16.50;;
58208;SDS011;44006;52.028;4.696;2023-05-07T05:18:21;19.42;;;15.57;;
58208;SDS011;44006;52.028;4.696;2023-05-07T05:20:46;21.52;;;16.90;;
58208;SDS011;44006;52.028;4.696;2023-05-07T05:23:11;19.90;;;16.93;;
58208;SDS011;44006;52.028;4.696;2023-05-07T05:25:36;25.27;;;18.20;;
58208;SDS011;44006;52.028;4.696;2023-05-07T05:28:04;22.20;;;17.80;;
58208;SDS011;44006;52.028;4.696;2023-05-07T05:30:29;18.25;;;15.52;;
58208;SDS011;44006;52.028;4.696;2023-05-07T05:32:54;27.58;;;19.48;;
58208;SDS011;44006;52.028;4.696;2023-05-07T05:35:19;22.25;;;18.25;;
58208;SDS011;44006;52.028;4.696;2023-05-07T05:37:45;21.83;;;17.80;;
58208;SDS011;44006;52.028;4.696;2023-05-07T05:40:10;25.45;;;20.52;;
58208;SDS011;44006;52.028;4.696;2023-05-07T05:42:35;27.25;;;21.00;;
58208;SDS011;44006;52.028;4.696;2023-05-07T05:45:00;23.87;;;20.23;;
58208;SDS011;44006;52.028;4.696;2023-05-07T05:47:26;26.53;;;18.83;;
58208;SDS011;44006;52.028;4.696;2023-05-07T05:49:51;28.58;;;22.35;;
58208;SDS011;44006;52.028;4.696;2023-05-07T05:52:16;24.02;;;19.60;;
58208;SDS011;44006;52.028;4.696;2023-05-07T05:54:42;26.05;;;20.60;;
58208;SDS011;44006;52.028;4.696;2023-05-07T05:57:07;28.43;;;21.53;;
58208;SDS011;44006;52.028;4.696;2023-05-07T05:59:32;28.17;;;23.63;;
58208;SDS011;44006;52.028;4.696;2023-05-07T06:01:58;30.92;;;23.80;;
58208;SDS011;44006;52.028;4.696;2023-05-07T06:04:23;26.83;;;22.63;;
58208;SDS011;44006;52.028;4.696;2023-05-07T06:06:48;27.77;;;22.60;;
58208;SDS011;44006;52.028;4.696;2023-05-07T06:09:13;30.67;;;23.60;;
58208;SDS011;44006;52.028;4.696;2023-05-07T06:11:38;33.20;;;27.35;;
58208;SDS011;44006;52.028;4.696;2023-05-07T06:14:05;32.20;;;27.63;;
58208;SDS011;44006;52.028;4.696;2023-05-07T06:16:31;32.20;;;27.13;;
58208;SDS011;44006;52.028;4.696;2023-05-07T06:18:56;29.48;;;24.42;;
58208;SDS011;44006;52.028;4.696;2023-05-07T06:21:21;33.67;;;26.67;;
58208;SDS011;44006;52.028;4.696;2023-05-07T06:23:46;31.67;;;24.57;;
58208;SDS011;44006;52.028;4.696;2023-05-07T06:26:11;34.80;;;27.43;;
58208;SDS011;44006;52.028;4.696;2023-05-07T06:28:37;31.77;;;24.47;;
58208;SDS011;44006;52.028;4.696;2023-05-07T06:31:11;31.53;;;26.27;;
58208;SDS011;44006;52.028;4.696;2023-05-07T06:33:36;38.63;;;28.45;;
58208;SDS011;44006;52.028;4.696;2023-05-07T06:36:03;35.63;;;27.80;;
58208;SDS011;44006;52.028;4.696;2023-05-07T06:38:28;38.03;;;28.67;;
58208;SDS011;44006;52.028;4.696;2023-05-07T06:40:53;33.33;;;27.23;;
58208;SDS011;44006;52.028;4.696;2023-05-07T06:43:20;40.80;;;31.15;;
58208;SDS011;44006;52.028;4.696;2023-05-07T06:45:46;37.00;;;30.13;;
58208;SDS011;44006;52.028;4.696;2023-05-07T06:48:11;36.53;;;30.38;;
58208;SDS011;44006;52.028;4.696;2023-05-07T06:50:36;39.13;;;29.95;;
58208;SDS011;44006;52.028;4.696;2023-05-07T06:53:01;39.03;;;31.50;;
58208;SDS011;44006;52.028;4.696;2023-05-07T06:55:27;43.15;;;31.58;;
58208;SDS011;44006;52.028;4.696;2023-05-07T06:57:52;34.70;;;30.17;;
58208;SDS011;44006;52.028;4.696;2023-05-07T07:00:17;38.40;;;30.52;;
58208;SDS011;44006;52.028;4.696;2023-05-07T07:02:43;41.67;;;30.60;;
58208;SDS011;44006;52.028;4.696;2023-05-07T07:05:08;41.55;;;33.10;;
58208;SDS011;44006;52.028;4.696;2023-05-07T07:07:33;38.85;;;32.13;;
58208;SDS011;44006;52.028;4.696;2023-05-07T07:09:59;39.72;;;31.70;;
58208;SDS011;44006;52.028;4.696;2023-05-07T07:12:24;35.03;;;29.33;;
58208;SDS011;44006;52.028;4.696;2023-05-07T07:14:51;34.05;;;26.63;;
58208;SDS011;44006;52.028;4.696;2023-05-07T07:17:17;39.17;;;29.17;;
58208;SDS011;44006;52.028;4.696;2023-05-07T07:19:42;34.92;;;27.58;;
58208;SDS011;44006;52.028;4.696;2023-05-07T07:22:07;34.22;;;28.98;;
58208;SDS011;44006;52.028;4.696;2023-05-07T07:24:32;35.87;;;29.97;;
58208;SDS011;44006;52.028;4.696;2023-05-07T07:26:58;40.33;;;30.43;;
58208;SDS011;44006;52.028;4.696;2023-05-07T07:29:23;40.97;;;32.13;;
58208;SDS011;44006;52.028;4.696;2023-05-07T07:31:50;41.15;;;33.05;;
58208;SDS011;44006;52.028;4.696;2023-05-07T07:34:15;38.22;;;31.55;;
58208;SDS011;44006;52.028;4.696;2023-05-07T07:36:41;40.17;;;31.30;;
58208;SDS011;44006;52.028;4.696;2023-05-07T07:39:06;45.35;;;34.40;;
58208;SDS011;44006;52.028;4.696;2023-05-07T07:41:32;36.28;;;30.70;;
58208;SDS011;44006;52.028;4.696;2023-05-07T07:43:57;39.90;;;32.95;;
58208;SDS011;44006;52.028;4.696;2023-05-07T07:46:22;38.50;;;31.77;;
58208;SDS011;44006;52.028;4.696;2023-05-07T07:48:47;44.22;;;33.13;;
58208;SDS011;44006;52.028;4.696;2023-05-07T07:51:13;44.23;;;34.80;;
58208;SDS011;44006;52.028;4.696;2023-05-07T07:53:40;37.97;;;32.10;;
58208;SDS011;44006;52.028;4.696;2023-05-07T07:56:06;43.22;;;33.55;;
58208;SDS011;44006;52.028;4.696;2023-05-07T07:58:31;38.30;;;32.63;;
58208;SDS011;44006;52.028;4.696;2023-05-07T08:00:56;44.53;;;35.53;;
58208;SDS011;44006;52.028;4.696;2023-05-07T08:03:21;43.80;;;37.03;;
58208;SDS011;44006;52.028;4.696;2023-05-07T08:05:47;38.85;;;31.63;;
58208;SDS011;44006;52.028;4.696;2023-05-07T08:08:14;36.35;;;30.17;;
58208;SDS011;44006;52.028;4.696;2023-05-07T08:10:40;35.35;;;29.92;;
58208;SDS011;44006;52.028;4.696;2023-05-07T08:13:05;34.60;;;28.27;;
58208;SDS011;44006;52.028;4.696;2023-05-07T08:15:30;32.90;;;26.60;;
58208;SDS011;44006;52.028;4.696;2023-05-07T08:17:56;34.78;;;27.88;;
58208;SDS011;44006;52.028;4.696;2023-05-07T08:20:23;35.22;;;28.75;;
58208;SDS011;44006;52.028;4.696;2023-05-07T08:22:48;30.95;;;26.58;;
58208;SDS011;44006;52.028;4.696;2023-05-07T08:25:14;30.00;;;25.70;;
58208;SDS011;44006;52.028;4.696;2023-05-07T08:27:39;29.80;;;24.70;;
58208;SDS011;44006;52.028;4.696;2023-05-07T08:30:05;25.80;;;23.02;;
58208;SDS011;44006;52.028;4.696;2023-05-07T08:32:30;25.27;;;19.77;;
58208;SDS011;44006;52.028;4.696;2023-05-07T08:34:55;21.57;;;16.67;;
58208;SDS011;44006;52.028;4.696;2023-05-07T08:37:21;22.13;;;17.77;;
58208;SDS011;44006;52.028;4.696;2023-05-07T08:39:46;23.63;;;19.30;;
58208;SDS011;44006;52.028;4.696;2023-05-07T08:42:11;23.00;;;18.15;;
58208;SDS011;44006;52.028;4.696;2023-05-07T08:44:38;25.52;;;19.13;;
58208;SDS011;44006;52.028;4.696;2023-05-07T08:47:03;19.65;;;16.77;;
58208;SDS011;44006;52.028;4.696;2023-05-07T08:49:31;24.48;;;17.85;;
58208;SDS011;44006;52.028;4.696;2023-05-07T08:51:56;24.25;;;17.63;;
58208;SDS011;44006;52.028;4.696;2023-05-07T08:54:22;22.35;;;17.00;;
58208;SDS011;44006;52.028;4.696;2023-05-07T08:56:51;19.67;;;15.38;;
58208;SDS011;44006;52.028;4.696;2023-05-07T08:59:18;18.15;;;14.70;;
58208;SDS011;44006;52.028;4.696;2023-05-07T09:01:45;17.77;;;15.30;;
58208;SDS011;44006;52.028;4.696;2023-05-07T09:04:10;21.13;;;17.08;;
58208;SDS011;44006;52.028;4.696;2023-05-07T09:06:35;20.17;;;16.98;;
58208;SDS011;44006;52.028;4.696;2023-05-07T09:09:04;22.02;;;17.48;;
58208;SDS011;44006;52.028;4.696;2023-05-07T09:11:30;19.15;;;16.38;;
58208;SDS011;44006;52.028;4.696;2023-05-07T09:13:56;19.48;;;15.73;;
58208;SDS011;44006;52.028;4.696;2023-05-07T09:16:23;19.30;;;15.25;;
58208;SDS011;44006;52.028;4.696;2023-05-07T09:18:53;19.10;;;15.25;;
58208;SDS011;44006;52.028;4.696;2023-05-07T09:21:18;22.15;;;15.00;;
58208;SDS011;44006;52.028;4.696;2023-05-07T09:23:44;19.52;;;14.63;;
58208;SDS011;44006;52.028;4.696;2023-05-07T09:26:09;17.75;;;13.48;;
58208;SDS011;44006;52.028;4.696;2023-05-07T09:28:40;18.60;;;13.40;;
58208;SDS011;44006;52.028;4.696;2023-05-07T09:31:06;16.90;;;13.27;;
58208;SDS011;44006;52.028;4.696;2023-05-07T09:33:31;18.20;;;13.68;;
58208;SDS011;44006;52.028;4.696;2023-05-07T09:35:56;17.00;;;13.87;;
58208;SDS011;44006;52.028;4.696;2023-05-07T09:38:21;18.93;;;13.77;;
58208;SDS011;44006;52.028;4.696;2023-05-07T09:40:47;18.85;;;13.82;;
58208;SDS011;44006;52.028;4.696;2023-05-07T09:43:13;16.48;;;12.38;;
58208;SDS011;44006;52.028;4.696;2023-05-07T09:45:38;16.92;;;10.98;;
58208;SDS011;44006;52.028;4.696;2023-05-07T09:48:04;14.90;;;11.35;;
58208;SDS011;44006;52.028;4.696;2023-05-07T09:50:32;15.73;;;10.40;;
58208;SDS011;44006;52.028;4.696;2023-05-07T09:53:02;15.23;;;11.38;;
58208;SDS011;44006;52.028;4.696;2023-05-07T09:55:28;13.48;;;9.95;;
58208;SDS011;44006;52.028;4.696;2023-05-07T09:57:53;12.95;;;8.77;;
58208;SDS011;44006;52.028;4.696;2023-05-07T10:00:20;13.13;;;8.38;;
58208;SDS011;44006;52.028;4.696;2023-05-07T10:02:49;12.52;;;7.88;;
58208;SDS011;44006;52.028;4.696;2023-05-07T10:05:15;11.52;;;7.20;;
58208;SDS011;44006;52.028;4.696;2023-05-07T10:07:41;12.18;;;7.68;;
58208;SDS011;44006;52.028;4.696;2023-05-07T10:10:07;12.85;;;7.70;;
58208;SDS011;44006;52.028;4.696;2023-05-07T10:12:33;13.18;;;7.90;;
58208;SDS011;44006;52.028;4.696;2023-05-07T10:15:05;12.30;;;9.23;;
58208;SDS011;44006;52.028;4.696;2023-05-07T10:17:33;12.00;;;9.05;;
58208;SDS011;44006;52.028;4.696;2023-05-07T10:19:59;13.65;;;9.30;;
58208;SDS011;44006;52.028;4.696;2023-05-07T10:22:25;12.85;;;8.82;;
58208;SDS011;44006;52.028;4.696;2023-05-07T10:24:51;12.88;;;8.88;;
58208;SDS011;44006;52.028;4.696;2023-05-07T10:27:17;13.38;;;9.68;;
58208;SDS011;44006;52.028;4.696;2023-05-07T10:32:47;11.23;;;8.32;;
58208;SDS011;44006;52.028;4.696;2023-05-07T10:35:21;11.60;;;8.93;;
58208;SDS011;44006;52.028;4.696;2023-05-07T10:37:46;13.75;;;8.80;;
58208;SDS011;44006;52.028;4.696;2023-05-07T10:40:13;13.25;;;7.93;;
58208;SDS011;44006;52.028;4.696;2023-05-07T10:42:38;11.88;;;7.80;;
58208;SDS011;44006;52.028;4.696;2023-05-07T10:45:13;10.88;;;7.65;;
58208;SDS011;44006;52.028;4.696;2023-05-07T10:48:05;14.80;;;8.50;;
58208;SDS011;44006;52.028;4.696;2023-05-07T10:50:24;13.38;;;7.50;;
58208;SDS011;44006;52.028;4.696;2023-05-07T10:55:34;11.05;;;7.80;;
58208;SDS011;44006;52.028;4.696;2023-05-07T10:58:22;11.52;;;7.68;;
58208;SDS011;44006;52.028;4.696;2023-05-07T11:00:45;11.05;;;7.00;;
58208;SDS011;44006;52.028;4.696;2023-05-07T11:03:19;13.02;;;7.25;;
58208;SDS011;44006;52.028;4.696;2023-05-07T11:06:08;9.23;;;6.90;;
58208;SDS011;44006;52.028;4.696;2023-05-07T11:09:03;11.23;;;5.85;;
58208;SDS011;44006;52.028;4.696;2023-05-07T11:11:47;13.00;;;6.03;;
58208;SDS011;44006;52.028;4.696;2023-05-07T11:14:40;10.05;;;5.38;;
58208;SDS011;44006;52.028;4.696;2023-05-07T11:17:02;11.27;;;6.40;;
58208;SDS011;44006;52.028;4.696;2023-05-07T11:24:55;12.57;;;9.15;;
58208;SDS011;44006;52.028;4.696;2023-05-07T11:27:24;11.75;;;7.82;;
58208;SDS011;44006;52.028;4.696;2023-05-07T11:29:49;13.00;;;8.10;;
58208;SDS011;44006;52.028;4.696;2023-05-07T11:32:15;11.93;;;8.40;;
58208;SDS011;44006;52.028;4.696;2023-05-07T11:34:40;11.68;;;7.93;;
58208;SDS011;44006;52.028;4.696;2023-05-07T11:37:08;12.70;;;8.13;;
58208;SDS011;44006;52.028;4.696;2023-05-07T11:39:34;10.25;;;6.72;;
58208;SDS011;44006;52.028;4.696;2023-05-07T11:42:01;8.35;;;5.68;;
58208;SDS011;44006;52.028;4.696;2023-05-07T11:44:43;11.55;;;5.45;;
58208;SDS011;44006;52.028;4.696;2023-05-07T11:47:09;8.70;;;5.53;;
58208;SDS011;44006;52.028;4.696;2023-05-07T11:49:35;10.73;;;5.88;;
58208;SDS011;44006;52.028;4.696;2023-05-07T11:52:00;11.93;;;6.32;;
58208;SDS011;44006;52.028;4.696;2023-05-07T11:54:26;9.02;;;7.30;;
58208;SDS011;44006;52.028;4.696;2023-05-07T11:56:53;11.43;;;7.75;;
58208;SDS011;44006;52.028;4.696;2023-05-07T11:59:21;12.50;;;7.63;;
58208;SDS011;44006;52.028;4.696;2023-05-07T12:01:46;13.45;;;8.05;;
58208;SDS011;44006;52.028;4.696;2023-05-07T12:04:12;12.43;;;8.70;;
58208;SDS011;44006;52.028;4.696;2023-05-07T12:06:37;10.77;;;7.67;;
58208;SDS011;44006;52.028;4.696;2023-05-07T12:09:03;11.15;;;8.18;;
58208;SDS011;44006;52.028;4.696;2023-05-07T12:11:29;14.73;;;8.40;;
58208;SDS011;44006;52.028;4.696;2023-05-07T12:13:54;10.80;;;8.07;;
58208;SDS011;44006;52.028;4.696;2023-05-07T12:16:20;12.40;;;7.93;;
58208;SDS011;44006;52.028;4.696;2023-05-07T12:18:46;14.13;;;9.30;;
58208;SDS011;44006;52.028;4.696;2023-05-07T12:21:12;12.75;;;7.05;;
58208;SDS011;44006;52.028;4.696;2023-05-07T12:23:37;15.20;;;7.78;;
58208;SDS011;44006;52.028;4.696;2023-05-07T12:26:03;10.40;;;7.47;;
58208;SDS011;44006;52.028;4.696;2023-05-07T12:28:28;10.10;;;8.27;;
58208;SDS011;44006;52.028;4.696;2023-05-07T12:30:55;10.68;;;8.73;;
58208;SDS011;44006;52.028;4.696;2023-05-07T12:33:25;12.13;;;9.32;;
58208;SDS011;44006;52.028;4.696;2023-05-07T12:35:53;11.98;;;8.75;;
58208;SDS011;44006;52.028;4.696;2023-05-07T12:38:18;11.52;;;8.88;;
58208;SDS011;44006;52.028;4.696;2023-05-07T12:40:48;11.23;;;9.52;;
58208;SDS011;44006;52.028;4.696;2023-05-07T12:43:19;14.63;;;9.27;;
58208;SDS011;44006;52.028;4.696;2023-05-07T12:45:46;13.98;;;9.32;;
58208;SDS011;44006;52.028;4.696;2023-05-07T12:48:12;15.23;;;9.25;;
58208;SDS011;44006;52.028;4.696;2023-05-07T12:50:38;14.30;;;8.85;;
58208;SDS011;44006;52.028;4.696;2023-05-07T12:53:04;13.27;;;10.48;;
58208;SDS011;44006;52.028;4.696;2023-05-07T12:55:40;14.05;;;10.40;;
58208;SDS011;44006;52.028;4.696;2023-05-07T12:58:06;13.27;;;9.55;;
58208;SDS011;44006;52.028;4.696;2023-05-07T13:02:59;22.38;;;15.20;;
58208;SDS011;44006;52.028;4.696;2023-05-07T13:05:25;21.33;;;16.60;;
58208;SDS011;44006;52.028;4.696;2023-05-07T13:07:54;23.77;;;17.42;;
58208;SDS011;44006;52.028;4.696;2023-05-07T13:10:19;21.98;;;18.33;;
58208;SDS011;44006;52.028;4.696;2023-05-07T13:12:45;20.00;;;13.57;;
58208;SDS011;44006;52.028;4.696;2023-05-07T13:15:12;25.73;;;12.87;;
58208;SDS011;44006;52.028;4.696;2023-05-07T13:17:37;18.42;;;13.25;;
58208;SDS011;44006;52.028;4.696;2023-05-07T13:20:02;25.63;;;14.70;;
58208;SDS011;44006;52.028;4.696;2023-05-07T13:22:28;21.58;;;14.98;;
58208;SDS011;44006;52.028;4.696;2023-05-07T13:24:53;28.13;;;16.47;;
58208;SDS011;44006;52.028;4.696;2023-05-07T13:27:18;19.77;;;14.85;;
58208;SDS011;44006;52.028;4.696;2023-05-07T13:29:44;22.00;;;16.27;;
58208;SDS011;44006;52.028;4.696;2023-05-07T13:32:09;24.45;;;17.75;;
58208;SDS011;44006;52.028;4.696;2023-05-07T13:34:35;24.80;;;17.60;;
58208;SDS011;44006;52.028;4.696;2023-05-07T13:37:00;20.50;;;15.82;;
58208;SDS011;44006;52.028;4.696;2023-05-07T13:39:25;16.20;;;12.77;;
58208;SDS011;44006;52.028;4.696;2023-05-07T13:41:51;15.70;;;11.82;;
58208;SDS011;44006;52.028;4.696;2023-05-07T13:44:16;12.55;;;10.40;;
58208;SDS011;44006;52.028;4.696;2023-05-07T13:46:41;14.85;;;10.88;;
58208;SDS011;44006;52.028;4.696;2023-05-07T13:49:07;12.55;;;10.32;;
58208;SDS011;44006;52.028;4.696;2023-05-07T13:51:32;16.50;;;10.27;;
58208;SDS011;44006;52.028;4.696;2023-05-07T13:53:58;20.05;;;12.88;;
58208;SDS011;44006;52.028;4.696;2023-05-07T13:56:29;17.00;;;12.88;;
58208;SDS011;44006;52.028;4.696;2023-05-07T13:58:58;14.55;;;11.23;;
58208;SDS011;44006;52.028;4.696;2023-05-07T14:01:23;18.70;;;13.48;;
58208;SDS011;44006;52.028;4.696;2023-05-07T14:03:48;22.10;;;15.18;;
58208;SDS011;44006;52.028;4.696;2023-05-07T14:06:15;19.02;;;14.82;;
58208;SDS011;44006;52.028;4.696;2023-05-07T14:08:40;21.88;;;15.77;;
58208;SDS011;44006;52.028;4.696;2023-05-07T14:11:05;18.23;;;15.80;;
58208;SDS011;44006;52.028;4.696;2023-05-07T14:13:31;16.23;;;13.73;;
58208;SDS011;44006;52.028;4.696;2023-05-07T14:15:56;20.98;;;15.98;;
58208;SDS011;44006;52.028;4.696;2023-05-07T14:18:22;21.02;;;16.60;;
58208;SDS011;44006;52.028;4.696;2023-05-07T14:20:47;18.83;;;15.60;;
58208;SDS011;44006;52.028;4.696;2023-05-07T14:23:14;23.83;;;18.45;;
58208;SDS011;44006;52.028;4.696;2023-05-07T14:25:40;24.02;;;18.13;;
58208;SDS011;44006;52.028;4.696;2023-05-07T14:28:06;23.30;;;17.63;;
58208;SDS011;44006;52.028;4.696;2023-05-07T14:30:31;23.92;;;17.75;;